createdAt,value
2023-09-21T00:00:42.519Z,20.17
2023-09-21T00:03:45.897Z,20.12
2023-09-21T00:06:48.410Z,20.09
2023-09-21T00:09:50.079Z,20.08
2023-09-21T00:12:52.359Z,20.02
2023-09-21T00:15:57.395Z,20.05
2023-09-21T00:18:59.434Z,20.05
2023-09-21T00:22:01.710Z,20.09
2023-09-21T00:25:05.276Z,20.04
2023-09-21T00:28:07.796Z,20.04
2023-09-21T00:31:09.788Z,20.01
2023-09-21T00:34:11.746Z,19.98
2023-09-21T00:37:13.886Z,19.92
2023-09-21T00:40:23.438Z,19.92
2023-09-21T00:43:25.949Z,19.91
2023-09-21T00:46:28.394Z,19.90
2023-09-21T00:49:30.555Z,19.89
2023-09-21T00:52:32.441Z,19.88
2023-09-21T00:55:35.241Z,19.85
2023-09-21T00:58:40.555Z,19.81
2023-09-21T01:01:42.977Z,19.81
2023-09-21T01:04:44.874Z,19.81
2023-09-21T01:07:46.859Z,19.81
2023-09-21T01:10:49.816Z,19.80
2023-09-21T01:13:52.422Z,19.80
2023-09-21T01:16:54.186Z,19.79
2023-09-21T01:19:55.870Z,19.77
2023-09-21T01:23:08.105Z,19.76
2023-09-21T01:26:11.038Z,19.68
2023-09-21T01:29:13.498Z,19.67
2023-09-21T01:32:15.408Z,19.60
2023-09-21T01:35:17.231Z,19.67
2023-09-21T01:38:19.478Z,19.65
2023-09-21T01:41:21.229Z,19.65
2023-09-21T01:44:23.292Z,19.60
2023-09-21T01:47:25.658Z,19.59
2023-09-21T01:50:29.190Z,19.61
2023-09-21T01:53:31.498Z,19.63
2023-09-21T01:56:33.818Z,19.63
2023-09-21T01:59:35.633Z,19.55
2023-09-21T02:02:37.823Z,19.53
2023-09-21T02:05:41.489Z,19.51
2023-09-21T02:08:44.323Z,19.48
2023-09-21T02:11:46.353Z,19.46
2023-09-21T02:14:48.426Z,19.44
2023-09-21T02:17:50.834Z,19.42
2023-09-21T02:20:55.540Z,19.37
2023-09-21T02:23:57.868Z,19.42
2023-09-21T02:26:59.911Z,19.42
2023-09-21T02:30:02.211Z,19.40
2023-09-21T02:33:05.308Z,19.37
2023-09-21T02:36:14.556Z,19.34
2023-09-21T02:39:16.412Z,19.31
2023-09-21T02:42:18.804Z,19.29
2023-09-21T02:45:23.222Z,19.30
2023-09-21T02:48:25.307Z,19.23
2023-09-21T02:51:27.613Z,19.21
2023-09-21T02:54:29.266Z,19.19
2023-09-21T02:57:31.574Z,19.17
2023-09-21T03:00:34.331Z,19.16
2023-09-21T03:03:36.365Z,19.16
2023-09-21T03:06:38.718Z,19.12
2023-09-21T03:09:40.382Z,19.11
2023-09-21T03:12:42.320Z,19.09
2023-09-21T03:15:45.488Z,19.07
2023-09-21T03:18:48.040Z,19.07
2023-09-21T03:21:50.437Z,19.05
2023-09-21T03:24:52.730Z,19.04
2023-09-21T03:27:56.716Z,19.03
2023-09-21T03:30:58.720Z,19.07
2023-09-21T03:34:00.810Z,19.04
2023-09-21T03:37:02.453Z,19.01
2023-09-21T03:40:04.483Z,19.02
2023-09-21T03:43:07.710Z,18.98
2023-09-21T03:46:09.964Z,18.94
2023-09-21T03:49:14.340Z,18.91
2023-09-21T03:52:16.215Z,18.87
2023-09-21T03:55:18.441Z,18.78
2023-09-21T03:58:20.193Z,18.80
2023-09-21T04:01:21.959Z,18.80
2023-09-21T04:04:24.170Z,18.84
2023-09-21T04:07:26.360Z,18.92
2023-09-21T04:10:28.751Z,18.93
2023-09-21T04:13:30.988Z,18.89
2023-09-21T04:16:32.896Z,18.92
2023-09-21T04:19:37.247Z,19.01
2023-09-21T04:22:41.940Z,19.16
2023-09-21T04:25:45.271Z,19.27
2023-09-21T04:28:47.116Z,19.21
2023-09-21T04:31:49.345Z,19.19
2023-09-21T04:34:51.353Z,19.18
2023-09-21T04:37:53.811Z,19.21
2023-09-21T04:40:56.497Z,19.20
2023-09-21T04:43:58.605Z,19.16
2023-09-21T04:47:00.759Z,19.19
2023-09-21T04:50:02.685Z,19.19
2023-09-21T04:53:04.654Z,19.30
2023-09-21T04:56:07.184Z,19.50
2023-09-21T04:59:09.594Z,19.66
2023-09-21T05:02:11.324Z,19.41
2023-09-21T05:05:13.918Z,19.58
2023-09-21T05:08:30.472Z,19.59
2023-09-21T05:11:33.043Z,19.22
2023-09-21T05:14:35.304Z,19.49
2023-09-21T05:17:37.188Z,19.45
2023-09-21T05:20:39.129Z,19.37
2023-09-21T05:23:41.159Z,19.25
2023-09-21T05:26:43.138Z,19.12
2023-09-21T05:29:46.199Z,19.08
2023-09-21T05:32:48.182Z,19.08
2023-09-21T05:35:52.108Z,19.08
2023-09-21T05:38:53.929Z,19.06
2023-09-21T05:41:56.228Z,19.07
2023-09-21T05:44:58.382Z,19.09
2023-09-21T05:48:00.745Z,19.07
2023-09-21T05:51:18.609Z,19.13
2023-09-21T05:54:22.144Z,19.23
2023-09-21T05:57:25.201Z,19.32
2023-09-21T06:00:27.815Z,19.38
2023-09-21T06:03:29.924Z,19.53
2023-09-21T06:06:31.677Z,19.55
2023-09-21T06:09:33.904Z,19.57
2023-09-21T06:12:35.899Z,19.55
2023-09-21T06:15:41.027Z,19.57
2023-09-21T06:18:43.607Z,19.54
2023-09-21T06:21:45.601Z,19.41
2023-09-21T06:24:47.946Z,19.40
2023-09-21T06:27:49.811Z,19.43
2023-09-21T06:30:52.675Z,19.38
2023-09-21T06:33:54.945Z,19.37
2023-09-21T06:36:57.625Z,19.37
2023-09-21T06:40:00.698Z,19.33
2023-09-21T06:43:03.005Z,19.42
2023-09-21T06:46:06.396Z,19.15
2023-09-21T06:49:11.270Z,19.42
2023-09-21T06:52:16.654Z,19.57
2023-09-21T06:55:19.096Z,19.60
2023-09-21T06:58:22.081Z,19.57
2023-09-21T07:01:24.939Z,19.69
2023-09-21T07:04:29.451Z,19.90
2023-09-21T07:07:31.379Z,20.00
2023-09-21T07:10:33.906Z,20.02
2023-09-21T07:13:35.555Z,20.19
2023-09-21T07:16:37.339Z,20.38
2023-09-21T07:19:39.778Z,20.44
2023-09-21T07:22:41.516Z,20.48
2023-09-21T07:25:43.530Z,20.55
2023-09-21T07:28:45.581Z,20.84
2023-09-21T07:31:48.647Z,20.81
2023-09-21T07:34:50.669Z,21.17
2023-09-21T07:37:52.486Z,21.28
2023-09-21T07:40:55.074Z,21.29
2023-09-21T07:43:57.290Z,21.25
2023-09-21T07:46:59.923Z,21.29
2023-09-21T07:50:02.291Z,21.16
2023-09-21T07:53:04.223Z,21.04
2023-09-21T07:56:06.254Z,21.29
2023-09-21T07:59:08.737Z,21.37
2023-09-21T08:02:11.449Z,21.40
2023-09-21T08:05:15.043Z,21.33
2023-09-21T08:08:18.011Z,21.23
2023-09-21T08:11:20.236Z,21.15
2023-09-21T08:14:22.051Z,20.96
2023-09-21T08:17:23.906Z,20.69
2023-09-21T08:20:28.613Z,20.59
2023-09-21T08:23:31.688Z,20.31
2023-09-21T08:26:33.739Z,20.17
2023-09-21T08:29:36.278Z,20.27
2023-09-21T08:32:38.296Z,20.26
2023-09-21T08:35:43.164Z,20.24
2023-09-21T08:38:48.836Z,20.22
2023-09-21T08:41:51.973Z,20.12
2023-09-21T08:44:55.014Z,19.98
2023-09-21T08:47:57.323Z,20.00
2023-09-21T08:51:00.371Z,20.01
2023-09-21T08:54:04.892Z,20.05
2023-09-21T08:57:10.717Z,19.98
2023-09-21T09:00:13.600Z,19.99
2023-09-21T09:09:29.783Z,19.86
2023-09-21T09:12:31.865Z,19.94
2023-09-21T09:15:35.142Z,20.10
2023-09-21T09:18:37.623Z,20.24
2023-09-21T09:21:41.107Z,20.34
2023-09-21T09:24:46.158Z,20.43
2023-09-21T09:27:59.831Z,20.59
2023-09-21T09:31:01.711Z,20.80
2023-09-21T09:34:03.663Z,20.93
2023-09-21T09:37:06.830Z,21.06
2023-09-21T09:40:10.224Z,21.02
2023-09-21T09:43:16.520Z,20.87
2023-09-21T09:46:21.223Z,20.78
2023-09-21T09:49:27.508Z,20.99
2023-09-21T09:52:29.998Z,21.00
2023-09-21T09:55:33.548Z,21.34
2023-09-21T09:58:39.141Z,21.39
2023-09-21T10:01:41.738Z,21.49
2023-09-21T10:04:46.722Z,21.69
2023-09-21T10:07:51.250Z,21.97
2023-09-21T10:10:58.737Z,22.00
2023-09-21T10:14:01.651Z,22.19
2023-09-21T10:17:06.282Z,22.32
2023-09-21T10:20:13.048Z,22.41
2023-09-21T10:23:18.418Z,22.70
2023-09-21T10:26:20.995Z,22.92
2023-09-21T10:32:42.814Z,23.34
2023-09-21T10:35:49.056Z,23.26
2023-09-21T10:39:15.623Z,23.14
2023-09-21T10:49:21.995Z,23.43
2023-09-21T10:52:33.257Z,23.35
2023-09-21T10:55:35.786Z,23.27
2023-09-21T10:58:37.745Z,23.23
2023-09-21T11:01:40.052Z,23.47
2023-09-21T11:04:43.074Z,23.83
2023-09-21T11:07:48.693Z,23.35
2023-09-21T11:10:50.853Z,23.34
2023-09-21T11:13:53.111Z,23.86
2023-09-21T11:16:58.145Z,24.47
2023-09-21T11:20:02.068Z,27.33
2023-09-21T11:23:04.467Z,27.68
2023-09-21T11:26:06.405Z,27.08
2023-09-21T11:29:09.390Z,26.64
2023-09-21T11:32:15.007Z,29.43
2023-09-21T11:35:19.294Z,30.90
2023-09-21T11:38:21.648Z,32.90
2023-09-21T11:41:23.750Z,34.47
2023-09-21T11:44:30.432Z,35.06
2023-09-21T11:47:32.541Z,31.86
2023-09-21T11:50:35.813Z,30.22
2023-09-21T11:53:38.266Z,30.92
2023-09-21T11:56:40.479Z,34.31
2023-09-21T11:59:42.407Z,34.71
2023-09-21T12:02:44.657Z,33.69
2023-09-21T12:05:46.653Z,34.04
2023-09-21T12:08:48.546Z,34.91
2023-09-21T12:11:50.811Z,34.28
2023-09-21T12:14:52.990Z,35.49
2023-09-21T12:17:54.875Z,34.84
2023-09-21T12:20:57.120Z,35.59
2023-09-21T12:24:02.541Z,34.64
2023-09-21T12:27:19.359Z,31.75
2023-09-21T12:30:21.296Z,29.35
2023-09-21T12:33:42.224Z,28.29
2023-09-21T12:36:45.503Z,27.44
2023-09-21T12:39:47.398Z,27.04
2023-09-21T12:42:49.386Z,27.00
2023-09-21T12:45:51.417Z,27.01
2023-09-21T12:48:56.496Z,27.29
2023-09-21T12:51:58.803Z,26.96
2023-09-21T12:55:00.807Z,27.32
2023-09-21T12:58:03.554Z,27.34
2023-09-21T13:01:05.365Z,27.18
2023-09-21T13:04:07.652Z,27.04
2023-09-21T13:07:10.335Z,26.70
2023-09-21T13:10:14.146Z,26.72
2023-09-21T13:13:16.584Z,26.79
2023-09-21T13:16:18.304Z,27.02
2023-09-21T13:19:20.589Z,27.29
2023-09-21T13:22:25.528Z,27.17
2023-09-21T13:25:27.747Z,26.64
2023-09-21T13:28:30.256Z,26.64
2023-09-21T13:31:32.011Z,26.48
2023-09-21T13:34:36.215Z,26.55
2023-09-21T13:37:40.030Z,26.49
2023-09-21T13:40:45.495Z,26.42
2023-09-21T13:43:48.487Z,26.41
2023-09-21T13:46:52.248Z,26.38
2023-09-21T13:49:54.504Z,26.38
2023-09-21T13:52:56.433Z,26.36
2023-09-21T13:55:58.069Z,26.26
2023-09-21T13:58:59.808Z,26.43
2023-09-21T14:02:02.382Z,26.72
2023-09-21T14:05:04.534Z,26.68
2023-09-21T14:08:07.154Z,26.50
2023-09-21T14:11:09.750Z,26.40
2023-09-21T14:14:12.315Z,26.20
2023-09-21T14:17:14.574Z,26.11
2023-09-21T14:20:17.115Z,26.09
2023-09-21T14:23:18.808Z,26.16
2023-09-21T14:26:20.849Z,26.30
2023-09-21T14:29:22.531Z,26.21
2023-09-21T14:32:25.222Z,26.23
2023-09-21T14:35:27.469Z,26.11
2023-09-21T14:38:29.118Z,26.10
2023-09-21T14:41:31.796Z,26.13
2023-09-21T14:44:34.620Z,26.15
2023-09-21T14:47:36.912Z,26.08
2023-09-21T14:50:39.182Z,26.05
2023-09-21T14:53:41.174Z,26.03
2023-09-21T14:56:43.191Z,25.98
2023-09-21T14:59:44.980Z,25.95
2023-09-21T15:02:47.748Z,25.91
2023-09-21T15:05:50.058Z,25.89
2023-09-21T15:08:51.926Z,25.87
2023-09-21T15:11:54.148Z,25.84
2023-09-21T15:14:56.932Z,25.85
2023-09-21T15:17:59.709Z,25.84
2023-09-21T15:21:01.894Z,25.81
2023-09-21T15:24:03.874Z,25.77
2023-09-21T15:27:06.052Z,25.76
2023-09-21T15:30:08.335Z,25.78
2023-09-21T15:33:22.867Z,25.77
2023-09-21T15:36:32.887Z,25.74
2023-09-21T15:39:35.403Z,25.73
2023-09-21T15:42:37.270Z,25.69
2023-09-21T15:45:39.227Z,25.70
2023-09-21T15:48:43.025Z,25.67
2023-09-21T15:51:46.367Z,25.72
2023-09-21T15:54:48.373Z,25.67
2023-09-21T15:58:02.726Z,25.68
2023-09-21T16:01:04.925Z,25.61
2023-09-21T16:04:09.697Z,25.55
2023-09-21T16:07:11.576Z,25.49
2023-09-21T16:10:14.072Z,25.49
2023-09-21T16:13:16.044Z,25.49
2023-09-21T16:16:18.609Z,25.45
2023-09-21T16:19:20.857Z,25.46
2023-09-21T16:22:23.055Z,25.38
2023-09-21T16:25:25.202Z,25.34
2023-09-21T16:28:26.889Z,25.32
2023-09-21T16:31:29.460Z,25.30
2023-09-21T16:34:31.593Z,25.26
2023-09-21T16:37:33.276Z,25.24
2023-09-21T16:40:36.727Z,25.22
2023-09-21T16:43:38.976Z,25.20
2023-09-21T16:46:43.501Z,25.16
2023-09-21T16:49:45.195Z,25.20
2023-09-21T16:52:47.848Z,25.16
2023-09-21T16:55:50.284Z,25.14
2023-09-21T16:58:52.499Z,25.10
2023-09-21T17:01:54.715Z,25.07
2023-09-21T17:04:56.524Z,25.04
2023-09-21T17:07:58.941Z,25.04
2023-09-21T17:11:01.126Z,25.00
2023-09-21T17:14:02.834Z,24.96
2023-09-21T17:17:05.014Z,24.95
2023-09-21T17:20:08.101Z,24.95
2023-09-21T17:23:10.298Z,24.94
2023-09-21T17:26:12.189Z,24.92
2023-09-21T17:29:13.922Z,24.92
2023-09-21T17:32:15.947Z,24.88
2023-09-21T17:35:18.014Z,24.84
2023-09-21T17:38:20.456Z,24.80
2023-09-21T17:41:22.543Z,24.78
2023-09-21T17:44:24.486Z,24.75
2023-09-21T17:47:26.767Z,24.71
2023-09-21T17:50:29.076Z,24.69
2023-09-21T17:53:31.494Z,24.68
2023-09-21T17:56:36.254Z,24.62
2023-09-21T17:59:38.256Z,24.53
2023-09-21T18:02:41.042Z,24.46
2023-09-21T18:05:45.111Z,24.42
2023-09-21T18:08:47.714Z,24.41
2023-09-21T18:11:50.043Z,24.47
2023-09-21T18:14:52.194Z,24.46
2023-09-21T18:17:53.865Z,24.43
2023-09-21T18:20:55.686Z,24.39
2023-09-21T18:23:58.167Z,24.34
2023-09-21T18:27:00.698Z,24.27
2023-09-21T18:30:03.204Z,24.20
2023-09-21T18:33:07.804Z,24.12
2023-09-21T18:36:09.822Z,24.06
2023-09-21T18:39:12.204Z,24.00
2023-09-21T18:42:14.499Z,23.95
2023-09-21T18:45:18.757Z,23.91
2023-09-21T18:48:22.089Z,23.88
2023-09-21T18:51:24.639Z,23.84
2023-09-21T18:54:27.536Z,23.74
2023-09-21T18:57:29.966Z,23.78
2023-09-21T19:00:32.253Z,23.73
2023-09-21T19:03:35.522Z,23.68
2023-09-21T19:06:37.500Z,23.64
2023-09-21T19:09:39.787Z,23.59
2023-09-21T19:12:42.391Z,23.44
2023-09-21T19:15:45.212Z,23.50
2023-09-21T19:18:47.882Z,23.44
2023-09-21T19:21:50.141Z,23.39
2023-09-21T19:24:52.800Z,23.32
2023-09-21T19:27:54.898Z,23.30
2023-09-21T19:30:56.997Z,23.27
2023-09-21T19:33:59.290Z,23.23
2023-09-21T19:37:00.956Z,23.17
2023-09-21T19:40:02.806Z,23.15
2023-09-21T19:43:04.854Z,23.15
2023-09-21T19:46:06.953Z,23.09
2023-09-21T19:49:08.601Z,23.05
2023-09-21T19:52:10.403Z,23.00
2023-09-21T19:55:13.094Z,22.95
2023-09-21T19:58:15.011Z,22.92
2023-09-21T20:01:17.139Z,22.94
2023-09-21T20:04:19.437Z,22.88
2023-09-21T20:07:22.886Z,22.95
2023-09-21T20:10:24.788Z,22.99
2023-09-21T20:13:26.923Z,22.96
2023-09-21T20:16:28.639Z,22.89
2023-09-21T20:19:30.627Z,22.79
2023-09-21T20:22:32.418Z,22.70
2023-09-21T20:25:34.256Z,22.67
2023-09-21T20:28:35.943Z,22.58
2023-09-21T20:31:38.309Z,22.56
2023-09-21T20:34:40.471Z,22.51
2023-09-21T20:37:42.714Z,22.49
2023-09-21T20:40:44.393Z,22.44
2023-09-21T20:43:46.238Z,22.41
2023-09-21T20:46:49.417Z,22.36
2023-09-21T20:49:51.752Z,22.34
2023-09-21T20:52:53.697Z,22.33
2023-09-21T20:55:59.031Z,22.33
2023-09-21T20:59:00.957Z,22.32
2023-09-21T21:02:03.250Z,22.31
2023-09-21T21:05:07.005Z,22.29
2023-09-21T21:08:09.276Z,22.32
2023-09-21T21:11:10.992Z,22.29
2023-09-21T21:14:13.305Z,22.28
2023-09-21T21:17:15.011Z,22.28
2023-09-21T21:20:16.830Z,22.25
2023-09-21T21:23:18.454Z,22.25
2023-09-21T21:26:23.357Z,22.27
2023-09-21T21:29:25.605Z,22.28
2023-09-21T21:32:28.785Z,22.28
2023-09-21T21:35:30.820Z,22.26
2023-09-21T21:38:32.932Z,22.15
2023-09-21T21:41:34.759Z,22.12
2023-09-21T21:44:37.117Z,22.05
2023-09-21T21:47:39.414Z,21.96
2023-09-21T21:50:41.440Z,21.93
2023-09-21T21:53:46.058Z,21.90
2023-09-21T21:56:49.298Z,21.91
2023-09-21T21:59:51.274Z,21.91
2023-09-21T22:02:53.866Z,21.86
2023-09-21T22:05:55.789Z,21.79
2023-09-21T22:08:57.691Z,21.70
2023-09-21T22:11:59.638Z,21.65
2023-09-21T22:15:02.800Z,21.62
2023-09-21T22:18:05.739Z,21.57
2023-09-21T22:21:09.375Z,21.53
2023-09-21T22:24:12.017Z,21.49
2023-09-21T22:27:14.426Z,21.43
2023-09-21T22:30:16.780Z,21.40
2023-09-21T22:33:18.936Z,21.40
2023-09-21T22:36:20.983Z,21.39
2023-09-21T22:39:22.655Z,21.37
2023-09-21T22:42:26.615Z,21.34
2023-09-21T22:45:33.053Z,21.13
2023-09-21T22:48:35.077Z,21.28
2023-09-21T22:51:37.476Z,21.24
2023-09-21T22:54:39.521Z,21.18
2023-09-21T22:57:41.625Z,21.16
2023-09-21T23:00:55.286Z,21.12
2023-09-21T23:03:57.741Z,21.04
2023-09-21T23:06:59.982Z,21.03
2023-09-21T23:10:02.229Z,20.97
2023-09-21T23:13:04.467Z,20.92
2023-09-21T23:16:07.786Z,20.82
2023-09-21T23:19:09.754Z,20.74
2023-09-21T23:22:11.585Z,20.71
2023-09-21T23:25:14.416Z,20.65
2023-09-21T23:28:16.920Z,20.59
2023-09-21T23:31:18.779Z,20.53
2023-09-21T23:34:20.789Z,20.50
2023-09-21T23:37:22.531Z,20.43
2023-09-21T23:40:24.317Z,20.42
2023-09-21T23:43:26.519Z,20.37
2023-09-21T23:46:28.778Z,20.37
2023-09-21T23:49:30.753Z,20.35
2023-09-21T23:52:32.701Z,20.34
2023-09-21T23:55:34.415Z,20.31
2023-09-21T23:58:37.006Z,20.30
